Terminal Aerodrome Forecast
Issued by NWS

Home | Current Version | Previous Version | Text Only | Print | Product List | Glossary On
Versions: 1 2 3 4 5 6 7 8 9 10 11 12 13 14
000
FTUS42 TJSJ 301742
TAFKPK
TAF
TKPK 301742Z 3018/3118 07012KT P6SM VCSH FEW020 SCT040
      TEMPO 3018/3020 RA BKN020
     FM302300 08008KT P6SM SCT018=

USA.gov is the U.S. government's official web portal to all federal, state and local government web resources and services.